Time;durP1;ratioP1;P1;durP2;ratioP2;P2;SDS_P1;SDS_P2;PMS_P1;PMS_P2;Temp;Humidity;BMP_temperature;BMP_pressure;BME280_temperature;BME280_humidity;BME280_pressure;Samples;Min_cycle;Max_cycle;Signal;HPM_P1;HPM_P2
2022/03/04 00:02:02;;;;;;;28.60;18.98;;;;;;;;;;4816441;29;20069;-89
2022/03/04 00:04:44;;;;;;;35.15;20.55;;;;;;;;;;4813798;29;20129;-89
2022/03/04 00:07:11;;;;;;;34.83;21.30;;;;;;;;;;4812461;29;20054;-89
2022/03/04 00:09:37;;;;;;;33.70;18.98;;;;;;;;;;4813991;29;20198;-90
2022/03/04 00:12:07;;;;;;;32.55;20.65;;;;;;;;;;4814972;29;20039;-89
2022/03/04 00:14:33;;;;;;;34.65;20.63;;;;;;;;;;4831920;29;20057;-88
2022/03/04 00:16:59;;;;;;;36.92;21.65;;;;;;;;;;4813567;29;20042;-91
2022/03/04 00:19:25;;;;;;;35.15;19.95;;;;;;;;;;4816665;29;20061;-89
2022/03/04 00:21:52;;;;;;;32.03;19.98;;;;;;;;;;4824335;29;20403;-90
2022/03/04 00:24:19;;;;;;;35.25;23.15;;;;;;;;;;4819105;29;20042;-89
2022/03/04 00:26:45;;;;;;;32.38;20.48;;;;;;;;;;4804364;29;20088;-91
2022/03/04 00:29:12;;;;;;;35.10;21.00;;;;;;;;;;4819195;29;20123;-89
2022/03/04 00:31:38;;;;;;;32.05;19.88;;;;;;;;;;4819775;29;20046;-88
2022/03/04 00:34:08;;;;;;;33.10;20.48;;;;;;;;;;4819506;29;20061;-90
2022/03/04 00:36:35;;;;;;;32.53;18.83;;;;;;;;;;4810217;29;20053;-88
2022/03/04 00:39:05;;;;;;;36.65;19.42;;;;;;;;;;4802702;29;20087;-89
2022/03/04 00:41:32;;;;;;;38.15;19.98;;;;;;;;;;4811873;29;20443;-89
2022/03/04 00:44:32;;;;;;;31.98;20.42;;;;;;;;;;4815666;29;20376;-89
2022/03/04 00:47:07;;;;;;;37.30;21.38;;;;;;;;;;4814375;29;20420;-89
2022/03/04 00:49:34;;;;;;;32.92;20.92;;;;;;;;;;4814307;29;20126;-88
2022/03/04 00:52:00;;;;;;;36.30;21.70;;;;;;;;;;4817691;29;20051;-88
2022/03/04 00:54:26;;;;;;;37.33;21.60;;;;;;;;;;4817275;29;20410;-89
2022/03/04 00:56:52;;;;;;;35.85;22.13;;;;;;;;;;4835355;29;20142;-89
2022/03/04 00:59:18;;;;;;;40.72;23.33;;;;;;;;;;4817015;29;20104;-90
2022/03/04 01:01:45;;;;;;;38.05;23.13;;;;;;;;;;4832105;29;20042;-89
2022/03/04 01:04:11;;;;;;;41.55;24.83;;;;;;;;;;4819291;29;20056;-89
2022/03/04 01:06:40;;;;;;;41.88;21.45;;;;;;;;;;4817450;29;20046;-89
2022/03/04 01:09:15;;;;;;;45.42;22.73;;;;;;;;;;4833926;29;20099;-90
2022/03/04 01:11:50;;;;;;;40.10;22.30;;;;;;;;;;4835043;29;20057;-93
2022/03/04 01:14:16;;;;;;;37.45;21.23;;;;;;;;;;4819566;29;20699;-92
2022/03/04 01:16:42;;;;;;;36.85;20.48;;;;;;;;;;4827024;29;20435;-89
2022/03/04 01:19:08;;;;;;;33.45;20.25;;;;;;;;;;4818665;29;20038;-87
2022/03/04 01:21:41;;;;;;;37.90;20.95;;;;;;;;;;4815582;29;20511;-89
2022/03/04 01:24:07;;;;;;;42.83;21.65;;;;;;;;;;4810087;29;22028;-88
2022/03/04 01:26:33;;;;;;;35.92;21.02;;;;;;;;;;4813646;29;20056;-87
2022/03/04 01:29:00;;;;;;;36.47;21.27;;;;;;;;;;4834000;29;20129;-89
2022/03/04 01:31:26;;;;;;;37.85;21.58;;;;;;;;;;4817102;29;20038;-89
2022/03/04 01:33:52;;;;;;;33.85;20.80;;;;;;;;;;4815513;29;21619;-89
2022/03/04 01:36:18;;;;;;;36.17;19.90;;;;;;;;;;4834527;29;20050;-89
2022/03/04 01:38:44;;;;;;;35.03;19.88;;;;;;;;;;4833280;29;20049;-88
2022/03/04 01:41:10;;;;;;;33.25;20.73;;;;;;;;;;4817894;29;20057;-89
2022/03/04 01:43:36;;;;;;;32.17;20.52;;;;;;;;;;4828205;29;20096;-90
2022/03/04 01:46:29;;;;;;;36.05;21.17;;;;;;;;;;4831866;29;20103;-89
2022/03/04 01:48:55;;;;;;;30.38;19.80;;;;;;;;;;4810863;29;20145;-88
2022/03/04 01:51:21;;;;;;;35.72;21.33;;;;;;;;;;4818079;29;20050;-88
2022/03/04 01:54:03;;;;;;;39.10;22.10;;;;;;;;;;4814795;29;20120;-90
2022/03/04 01:56:32;;;;;;;36.95;22.27;;;;;;;;;;4816583;29;20422;-88
2022/03/04 01:58:58;;;;;;;31.45;20.45;;;;;;;;;;4815813;29;20135;-90
2022/03/04 02:01:30;;;;;;;37.95;21.30;;;;;;;;;;4814431;29;20051;-87
2022/03/04 02:03:56;;;;;;;40.03;20.05;;;;;;;;;;4800344;29;20141;-89
2022/03/04 02:06:22;;;;;;;35.08;20.23;;;;;;;;;;4816834;29;20050;-89
2022/03/04 02:08:49;;;;;;;34.95;19.88;;;;;;;;;;4784021;29;20132;-88
2022/03/04 02:11:15;;;;;;;34.10;19.80;;;;;;;;;;4814576;29;20064;-88
2022/03/04 02:13:42;;;;;;;35.80;20.45;;;;;;;;;;4815157;29;20042;-89
2022/03/04 02:16:18;;;;;;;35.88;21.40;;;;;;;;;;4784358;29;20046;-89
2022/03/04 02:18:44;;;;;;;33.08;19.60;;;;;;;;;;4810965;29;20054;-88
2022/03/04 02:21:11;;;;;;;33.25;19.67;;;;;;;;;;4782804;29;20047;-88
2022/03/04 02:23:37;;;;;;;31.50;20.42;;;;;;;;;;4796521;29;20054;-92
2022/03/04 02:26:04;;;;;;;33.90;19.67;;;;;;;;;;4812770;29;20112;-87
2022/03/04 02:28:30;;;;;;;36.95;19.50;;;;;;;;;;4812646;29;20070;-90
2022/03/04 02:30:56;;;;;;;37.35;20.50;;;;;;;;;;4807280;29;20086;-88
2022/03/04 02:33:22;;;;;;;33.17;20.27;;;;;;;;;;4813192;29;20050;-88
2022/03/04 02:35:48;;;;;;;39.40;20.75;;;;;;;;;;4813264;29;20047;-90
2022/03/04 02:38:14;;;;;;;32.08;19.02;;;;;;;;;;4812388;29;20054;-88
2022/03/04 02:40:40;;;;;;;37.85;20.80;;;;;;;;;;4817052;29;20046;-90
2022/03/04 02:43:06;;;;;;;44.50;21.98;;;;;;;;;;4811549;29;20047;-89
2022/03/04 02:45:33;;;;;;;37.55;20.00;;;;;;;;;;4815135;29;20043;-90
2022/03/04 02:47:59;;;;;;;37.80;21.27;;;;;;;;;;4813941;29;20408;-91
2022/03/04 02:50:25;;;;;;;35.70;19.45;;;;;;;;;;4829639;29;20038;-89
2022/03/04 02:53:10;;;;;;;38.05;20.83;;;;;;;;;;4814719;29;20082;-88
2022/03/04 02:55:42;;;;;;;33.78;20.08;;;;;;;;;;4813694;29;20365;-89
2022/03/04 02:58:08;;;;;;;36.65;20.27;;;;;;;;;;4813512;29;20138;-90
2022/03/04 03:00:34;;;;;;;34.42;19.95;;;;;;;;;;4806630;29;20059;-88
2022/03/04 03:03:00;;;;;;;35.95;20.73;;;;;;;;;;4812957;29;20939;-90
2022/03/04 03:05:27;;;;;;;32.13;18.42;;;;;;;;;;4813293;29;20099;-89
2022/03/04 03:07:53;;;;;;;39.17;22.10;;;;;;;;;;4812906;29;20134;-89
2022/03/04 03:10:19;;;;;;;35.60;20.17;;;;;;;;;;4813954;29;20050;-89
2022/03/04 03:12:45;;;;;;;37.20;20.10;;;;;;;;;;4811242;29;20038;-90
2022/03/04 03:15:12;;;;;;;34.67;20.05;;;;;;;;;;4813604;29;20169;-92
2022/03/04 03:17:38;;;;;;;36.22;20.10;;;;;;;;;;4813260;29;20054;-88
2022/03/04 03:20:05;;;;;;;38.05;21.13;;;;;;;;;;4792846;29;20510;-90
2022/03/04 03:22:32;;;;;;;38.05;20.90;;;;;;;;;;4813239;29;20046;-91
2022/03/04 03:24:58;;;;;;;34.35;21.60;;;;;;;;;;4813721;29;20077;-90
2022/03/04 03:27:24;;;;;;;38.25;21.13;;;;;;;;;;4810715;29;20814;-90
2022/03/04 03:29:50;;;;;;;39.42;19.83;;;;;;;;;;4811813;29;20046;-88
2022/03/04 03:32:16;;;;;;;38.45;20.77;;;;;;;;;;4828345;29;20522;-91
2022/03/04 03:34:42;;;;;;;39.05;21.55;;;;;;;;;;4812789;29;20140;-90
2022/03/04 03:37:09;;;;;;;40.78;22.23;;;;;;;;;;4811592;29;20046;-88
2022/03/04 03:39:36;;;;;;;41.28;22.73;;;;;;;;;;4811195;29;20050;-88
2022/03/04 03:42:02;;;;;;;39.33;24.38;;;;;;;;;;4814245;29;20042;-89
2022/03/04 03:44:29;;;;;;;50.28;27.40;;;;;;;;;;4823482;29;20050;-87
2022/03/04 03:46:56;;;;;;;45.40;24.10;;;;;;;;;;4826713;29;20050;-88
2022/03/04 03:49:22;;;;;;;42.50;23.70;;;;;;;;;;4824448;29;20037;-91
2022/03/04 03:51:48;;;;;;;46.05;26.10;;;;;;;;;;4832061;29;20046;-90
2022/03/04 03:54:15;;;;;;;43.70;23.65;;;;;;;;;;4830797;29;20046;-89
2022/03/04 03:56:42;;;;;;;47.97;25.42;;;;;;;;;;4821742;29;20538;-88
2022/03/04 03:59:08;;;;;;;44.25;24.88;;;;;;;;;;4811127;29;20066;-88
2022/03/04 04:01:35;;;;;;;40.22;21.73;;;;;;;;;;4815746;29;20086;-89
2022/03/04 04:04:13;;;;;;;49.20;26.98;;;;;;;;;;4800356;29;20031;-92
2022/03/04 04:06:40;;;;;;;49.28;25.42;;;;;;;;;;4815100;29;20129;-87
2022/03/04 04:09:06;;;;;;;50.47;27.65;;;;;;;;;;4815874;29;20046;-89
2022/03/04 04:11:34;;;;;;;52.92;25.70;;;;;;;;;;4805913;29;20124;-88
2022/03/04 04:14:02;;;;;;;48.70;25.83;;;;;;;;;;4812598;29;20054;-88
2022/03/04 04:16:28;;;;;;;43.90;23.63;;;;;;;;;;4796490;29;20517;-88
2022/03/04 04:18:58;;;;;;;50.25;26.02;;;;;;;;;;4813519;29;20082;-88
2022/03/04 04:21:24;;;;;;;49.78;25.75;;;;;;;;;;4794513;29;20050;-87
2022/03/04 04:23:51;;;;;;;46.78;26.33;;;;;;;;;;4808888;29;20058;-89
2022/03/04 04:26:17;;;;;;;50.85;25.42;;;;;;;;;;4807105;29;20054;-88
2022/03/04 04:28:43;;;;;;;46.58;25.60;;;;;;;;;;4805573;29;20071;-89
2022/03/04 04:31:09;;;;;;;46.05;25.00;;;;;;;;;;4812232;29;20034;-88
2022/03/04 04:33:35;;;;;;;47.40;26.00;;;;;;;;;;4827516;29;20511;-89
2022/03/04 04:36:01;;;;;;;49.45;23.88;;;;;;;;;;4811130;29;20460;-89
2022/03/04 04:38:27;;;;;;;49.20;25.48;;;;;;;;;;4812603;29;20043;-87
2022/03/04 04:40:54;;;;;;;44.35;24.70;;;;;;;;;;4811947;29;20196;-87
2022/03/04 04:43:20;;;;;;;42.55;23.25;;;;;;;;;;4811867;29;20369;-88
2022/03/04 04:45:46;;;;;;;46.85;24.08;;;;;;;;;;4826163;29;20043;-88
2022/03/04 04:48:12;;;;;;;45.58;24.02;;;;;;;;;;4813538;29;20423;-89
2022/03/04 04:50:38;;;;;;;48.22;27.02;;;;;;;;;;4827329;29;20038;-88
2022/03/04 04:53:04;;;;;;;51.90;26.42;;;;;;;;;;4821287;29;20145;-87
2022/03/04 04:55:30;;;;;;;48.22;26.50;;;;;;;;;;4813474;29;20034;-92
2022/03/04 04:57:56;;;;;;;49.83;25.40;;;;;;;;;;4812660;29;20134;-88
2022/03/04 05:00:22;;;;;;;44.60;25.33;;;;;;;;;;4812298;29;20046;-88
2022/03/04 05:02:50;;;;;;;42.63;24.58;;;;;;;;;;4814362;29;20054;-89
2022/03/04 05:05:16;;;;;;;44.25;22.65;;;;;;;;;;4785412;29;20407;-88
2022/03/04 05:07:42;;;;;;;47.97;24.08;;;;;;;;;;4815785;29;20046;-89
2022/03/04 05:10:08;;;;;;;46.47;24.50;;;;;;;;;;4802413;29;20046;-87
2022/03/04 05:12:34;;;;;;;49.50;23.48;;;;;;;;;;4830922;29;20045;-88
2022/03/04 05:15:00;;;;;;;41.67;23.02;;;;;;;;;;4811837;29;20130;-92
2022/03/04 05:17:27;;;;;;;39.38;22.17;;;;;;;;;;4815857;29;20049;-90
2022/03/04 05:19:53;;;;;;;38.25;21.58;;;;;;;;;;4832882;29;20057;-90
2022/03/04 05:22:19;;;;;;;47.38;23.10;;;;;;;;;;4830285;29;20074;-87
2022/03/04 05:24:45;;;;;;;45.53;21.95;;;;;;;;;;4811709;29;20057;-88
2022/03/04 05:27:11;;;;;;;49.92;25.45;;;;;;;;;;4785771;29;20132;-90
2022/03/04 05:29:37;;;;;;;39.22;22.98;;;;;;;;;;4832861;29;20041;-88
2022/03/04 05:32:03;;;;;;;41.60;22.15;;;;;;;;;;4816296;29;20669;-89
2022/03/04 05:34:45;;;;;;;42.92;23.50;;;;;;;;;;4815352;29;20075;-92
2022/03/04 05:37:11;;;;;;;45.08;25.23;;;;;;;;;;4818264;29;20081;-89
2022/03/04 05:39:37;;;;;;;46.42;25.20;;;;;;;;;;4819603;29;20065;-89
2022/03/04 05:42:15;;;;;;;52.72;30.10;;;;;;;;;;4816911;29;20090;-92
2022/03/04 05:44:41;;;;;;;45.70;25.88;;;;;;;;;;4815715;29;20046;-88
2022/03/04 05:47:07;;;;;;;41.47;23.77;;;;;;;;;;4823390;29;20065;-89
2022/03/04 05:49:33;;;;;;;48.40;27.60;;;;;;;;;;4823235;29;20099;-88
2022/03/04 05:51:59;;;;;;;43.08;22.42;;;;;;;;;;4833437;29;20267;-89
2022/03/04 05:54:26;;;;;;;48.50;24.90;;;;;;;;;;4821522;29;20042;-90
2022/03/04 05:57:00;;;;;;;54.67;25.58;;;;;;;;;;4818872;29;20207;-89
2022/03/04 05:59:39;;;;;;;49.10;24.45;;;;;;;;;;4841044;29;20056;-92
2022/03/04 06:02:05;;;;;;;50.42;23.65;;;;;;;;;;4818105;29;20158;-90
2022/03/04 06:04:31;;;;;;;46.47;24.33;;;;;;;;;;4822368;29;20506;-90
2022/03/04 06:07:03;;;;;;;44.35;23.95;;;;;;;;;;4837543;29;20099;-90
2022/03/04 06:09:34;;;;;;;46.13;23.17;;;;;;;;;;4819353;29;20044;-90
2022/03/04 06:12:15;;;;;;;43.40;24.85;;;;;;;;;;4821699;29;20086;-90
2022/03/04 06:14:42;;;;;;;41.05;19.85;;;;;;;;;;4822341;29;20507;-90
2022/03/04 06:17:08;;;;;;;43.05;22.25;;;;;;;;;;4822749;29;20034;-89
2022/03/04 06:19:34;;;;;;;40.05;18.92;;;;;;;;;;4789789;29;20046;-91
2022/03/04 06:22:00;;;;;;;38.10;20.67;;;;;;;;;;4817088;29;20038;-90
2022/03/04 06:24:26;;;;;;;38.17;19.95;;;;;;;;;;4819687;29;20061;-89
2022/03/04 06:26:52;;;;;;;37.97;21.13;;;;;;;;;;4821293;29;20050;-89
2022/03/04 06:29:18;;;;;;;43.40;20.55;;;;;;;;;;4826204;29;20074;-89
2022/03/04 06:31:44;;;;;;;41.03;21.38;;;;;;;;;;4813859;29;20144;-90
2022/03/04 06:34:10;;;;;;;41.83;21.60;;;;;;;;;;4837933;29;20069;-88
2022/03/04 06:36:38;;;;;;;39.60;21.80;;;;;;;;;;4822092;29;20103;-90
2022/03/04 06:39:04;;;;;;;43.25;22.25;;;;;;;;;;4821837;29;20466;-91
2022/03/04 06:41:30;;;;;;;37.00;20.10;;;;;;;;;;4818830;29;20115;-88
2022/03/04 06:43:56;;;;;;;41.55;21.73;;;;;;;;;;4824946;29;20045;-89
2022/03/04 06:46:23;;;;;;;44.67;22.20;;;;;;;;;;4799877;29;20480;-93
2022/03/04 06:48:49;;;;;;;42.83;22.10;;;;;;;;;;4787738;29;20463;-89
2022/03/04 06:51:15;;;;;;;41.47;21.33;;;;;;;;;;4821535;29;20057;-89
2022/03/04 06:53:41;;;;;;;41.95;21.17;;;;;;;;;;4813537;29;20057;-89
2022/03/04 06:56:07;;;;;;;41.65;22.55;;;;;;;;;;4818113;29;20121;-90
2022/03/04 06:58:34;;;;;;;37.00;19.63;;;;;;;;;;4814590;29;20050;-89
2022/03/04 07:01:01;;;;;;;38.28;21.40;;;;;;;;;;4816424;29;20061;-92
2022/03/04 07:03:27;;;;;;;33.70;19.48;;;;;;;;;;4823198;29;20038;-89
2022/03/04 07:05:53;;;;;;;35.03;19.92;;;;;;;;;;4819025;29;20448;-88
2022/03/04 07:08:19;;;;;;;40.30;20.45;;;;;;;;;;4785820;29;20058;-90
2022/03/04 07:10:47;;;;;;;36.42;21.67;;;;;;;;;;4834920;29;20054;-89
2022/03/04 07:13:13;;;;;;;36.63;21.08;;;;;;;;;;4819569;29;20068;-89
2022/03/04 07:15:40;;;;;;;32.38;17.92;;;;;;;;;;4830129;29;20116;-89
2022/03/04 07:18:09;;;;;;;31.98;18.50;;;;;;;;;;4828112;29;20122;-89
2022/03/04 07:20:40;;;;;;;36.00;20.30;;;;;;;;;;4822328;29;20462;-89
2022/03/04 07:23:06;;;;;;;33.97;19.25;;;;;;;;;;4817369;29;20049;-89
2022/03/04 07:26:08;;;;;;;38.38;20.95;;;;;;;;;;4808618;29;20057;-89
2022/03/04 07:28:35;;;;;;;34.72;19.40;;;;;;;;;;4834486;29;20050;-89
2022/03/04 07:31:01;;;;;;;31.77;19.17;;;;;;;;;;4820850;29;20045;-90
2022/03/04 07:33:27;;;;;;;32.35;17.98;;;;;;;;;;4818030;29;20037;-89
2022/03/04 07:35:53;;;;;;;32.63;18.98;;;;;;;;;;4805010;29;20053;-90
2022/03/04 07:38:19;;;;;;;29.52;18.48;;;;;;;;;;4816777;29;20515;-91
2022/03/04 07:40:45;;;;;;;27.30;16.90;;;;;;;;;;4820066;29;20107;-90
2022/03/04 07:43:12;;;;;;;31.45;19.15;;;;;;;;;;4784338;29;20451;-90
2022/03/04 07:45:38;;;;;;;29.83;17.08;;;;;;;;;;4825063;29;20097;-89
2022/03/04 07:48:04;;;;;;;30.63;18.25;;;;;;;;;;4834170;29;20053;-90
2022/03/04 07:50:36;;;;;;;32.20;17.42;;;;;;;;;;4787096;29;20129;-91
2022/03/04 07:53:09;;;;;;;35.10;17.20;;;;;;;;;;4786231;29;20137;-89
2022/03/04 07:56:00;;;;;;;27.60;16.33;;;;;;;;;;4836426;29;20153;-88
2022/03/04 07:58:34;;;;;;;27.98;16.98;;;;;;;;;;4815699;29;20551;-89
2022/03/04 08:04:33;;;;;;;30.70;16.77;;;;;;;;;;4842893;29;20447;-90
2022/03/04 08:07:17;;;;;;;27.52;17.77;;;;;;;;;;4811252;29;20077;-89
2022/03/04 08:09:52;;;;;;;32.70;17.50;;;;;;;;;;4824768;29;20042;-89
2022/03/04 08:12:25;;;;;;;39.63;19.85;;;;;;;;;;4823893;29;20048;-89
2022/03/04 08:14:51;;;;;;;42.33;20.98;;;;;;;;;;4827314;29;20054;-88
2022/03/04 08:17:18;;;;;;;39.65;18.00;;;;;;;;;;4787681;29;20494;-89
2022/03/04 08:19:44;;;;;;;24.38;16.08;;;;;;;;;;4820878;29;20057;-89
2022/03/04 08:22:10;;;;;;;31.98;18.50;;;;;;;;;;4817107;29;20050;-90
2022/03/04 08:24:36;;;;;;;36.17;19.35;;;;;;;;;;4829583;29;20073;-89
2022/03/04 08:27:02;;;;;;;31.67;19.30;;;;;;;;;;4818389;29;20038;-89
2022/03/04 08:29:28;;;;;;;33.85;18.83;;;;;;;;;;4817391;29;20046;-88
2022/03/04 08:31:54;;;;;;;42.78;22.58;;;;;;;;;;4820061;29;20052;-87
2022/03/04 08:34:20;;;;;;;42.95;23.02;;;;;;;;;;4817623;29;20157;-90
2022/03/04 08:36:49;;;;;;;40.83;22.80;;;;;;;;;;4819711;29;20091;-89
2022/03/04 08:39:16;;;;;;;40.03;22.52;;;;;;;;;;4821708;29;20042;-90
2022/03/04 08:41:49;;;;;;;37.55;20.38;;;;;;;;;;4825021;29;20481;-88
2022/03/04 08:44:15;;;;;;;28.00;16.63;;;;;;;;;;4822860;29;20106;-89
2022/03/04 08:46:41;;;;;;;28.65;17.75;;;;;;;;;;4838369;29;20093;-89
2022/03/04 08:49:09;;;;;;;32.42;18.95;;;;;;;;;;4808725;29;20491;-89
2022/03/04 08:51:36;;;;;;;28.30;17.35;;;;;;;;;;4803359;29;20049;-88
2022/03/04 08:54:05;;;;;;;29.00;18.70;;;;;;;;;;4821859;29;20610;-89
2022/03/04 08:56:32;;;;;;;34.08;20.27;;;;;;;;;;4819129;29;20042;-89
2022/03/04 08:58:58;;;;;;;30.00;18.95;;;;;;;;;;4811822;29;20495;-88
2022/03/04 09:01:25;;;;;;;33.50;19.38;;;;;;;;;;4806079;29;20114;-88
2022/03/04 09:03:51;;;;;;;34.50;19.52;;;;;;;;;;4836578;29;20119;-87
2022/03/04 09:06:17;;;;;;;26.92;19.13;;;;;;;;;;4835763;29;20057;-87
2022/03/04 09:08:43;;;;;;;36.95;21.52;;;;;;;;;;4814491;29;20053;-88
2022/03/04 09:11:09;;;;;;;25.15;16.42;;;;;;;;;;4808293;29;20057;-87
2022/03/04 09:13:36;;;;;;;33.78;20.65;;;;;;;;;;4838159;29;20125;-90
2022/03/04 09:16:03;;;;;;;31.75;19.10;;;;;;;;;;4820753;29;20077;-89
2022/03/04 09:18:29;;;;;;;31.10;19.63;;;;;;;;;;4827171;29;20620;-86
2022/03/04 09:20:55;;;;;;;34.20;18.20;;;;;;;;;;4834146;29;20045;-86
2022/03/04 09:23:22;;;;;;;31.90;20.42;;;;;;;;;;4827332;29;20145;-86
2022/03/04 09:25:49;;;;;;;30.40;17.77;;;;;;;;;;4820848;29;20054;-86
2022/03/04 09:28:15;;;;;;;27.13;18.35;;;;;;;;;;4833184;29;20137;-86
2022/03/04 09:30:42;;;;;;;28.63;18.35;;;;;;;;;;4819394;29;20578;-87
2022/03/04 09:33:08;;;;;;;31.20;18.92;;;;;;;;;;4823484;29;20414;-87
2022/03/04 09:35:34;;;;;;;29.83;18.65;;;;;;;;;;4834617;29;20042;-90
2022/03/04 09:38:00;;;;;;;31.35;18.58;;;;;;;;;;4831894;29;20050;-91
2022/03/04 09:40:27;;;;;;;26.40;17.55;;;;;;;;;;4815547;29;20126;-85
2022/03/04 09:42:54;;;;;;;32.47;18.30;;;;;;;;;;4837877;29;20070;-85
2022/03/04 09:45:20;;;;;;;30.65;19.50;;;;;;;;;;4815700;29;20082;-86
2022/03/04 09:47:46;;;;;;;31.27;18.65;;;;;;;;;;4818080;29;20077;-86
2022/03/04 09:50:16;;;;;;;27.63;18.27;;;;;;;;;;4837339;29;20041;-85
2022/03/04 09:52:42;;;;;;;27.70;18.13;;;;;;;;;;4835534;29;20070;-85
2022/03/04 09:55:08;;;;;;;28.20;17.17;;;;;;;;;;4825822;29;20133;-86
2022/03/04 09:57:35;;;;;;;26.83;16.23;;;;;;;;;;4837606;29;20527;-88
2022/03/04 10:00:01;;;;;;;27.67;17.88;;;;;;;;;;4822574;29;20096;-87
2022/03/04 10:02:32;;;;;;;26.17;17.30;;;;;;;;;;4818232;29;20054;-86
2022/03/04 10:04:59;;;;;;;25.27;17.02;;;;;;;;;;4837204;29;20073;-85
2022/03/04 10:07:26;;;;;;;23.90;15.82;;;;;;;;;;4819398;29;20046;-91
2022/03/04 10:09:52;;;;;;;24.95;16.20;;;;;;;;;;4837428;29;20050;-88
2022/03/04 10:12:20;;;;;;;22.98;15.35;;;;;;;;;;4820234;29;20348;-87
2022/03/04 10:15:04;;;;;;;22.85;15.48;;;;;;;;;;4818076;29;20407;-88
2022/03/04 10:17:31;;;;;;;22.42;15.57;;;;;;;;;;4820623;29;20058;-88
2022/03/04 10:20:05;;;;;;;22.80;14.52;;;;;;;;;;4836826;29;20046;-86
2022/03/04 10:22:42;;;;;;;26.45;15.48;;;;;;;;;;4821731;29;20050;-87
2022/03/04 10:25:15;;;;;;;21.73;14.15;;;;;;;;;;4818179;29;20061;-91
2022/03/04 10:27:42;;;;;;;22.75;14.85;;;;;;;;;;4806180;29;20042;-86
2022/03/04 10:30:08;;;;;;;18.48;12.85;;;;;;;;;;4821798;29;20041;-87
2022/03/04 10:32:34;;;;;;;19.73;13.02;;;;;;;;;;4817527;29;20118;-89
2022/03/04 10:35:01;;;;;;;19.48;12.70;;;;;;;;;;4821115;29;20165;-89
2022/03/04 10:37:51;;;;;;;21.15;12.65;;;;;;;;;;4813168;29;20430;-91
2022/03/04 10:40:18;;;;;;;20.08;12.95;;;;;;;;;;4818082;29;20461;-87
2022/03/04 10:42:52;;;;;;;20.55;12.85;;;;;;;;;;4819047;29;20045;-92
2022/03/04 10:45:40;;;;;;;18.83;12.68;;;;;;;;;;4810294;29;20089;-90
2022/03/04 10:48:07;;;;;;;18.08;11.93;;;;;;;;;;4819548;29;20144;-88
2022/03/04 10:50:50;;;;;;;17.23;11.23;;;;;;;;;;4817274;29;20132;-88
2022/03/04 10:53:17;;;;;;;18.00;11.90;;;;;;;;;;4837188;29;20054;-92
2022/03/04 10:55:45;;;;;;;17.90;10.90;;;;;;;;;;4818439;29;20092;-90
2022/03/04 10:58:14;;;;;;;19.33;11.82;;;;;;;;;;4835901;29;20050;-87
2022/03/04 11:00:41;;;;;;;17.45;11.75;;;;;;;;;;4817626;29;20064;-88
2022/03/04 11:03:30;;;;;;;17.80;11.43;;;;;;;;;;4819926;29;20058;-90
2022/03/04 11:05:57;;;;;;;15.63;11.10;;;;;;;;;;4835609;29;20045;-91
2022/03/04 11:08:24;;;;;;;20.33;11.95;;;;;;;;;;4834655;29;20050;-86
2022/03/04 11:10:50;;;;;;;15.07;11.05;;;;;;;;;;4820107;29;20491;-88
2022/03/04 11:13:34;;;;;;;18.67;12.40;;;;;;;;;;4818167;29;20038;-89
2022/03/04 11:16:06;;;;;;;17.63;12.57;;;;;;;;;;4834399;29;20058;-95
2022/03/04 11:18:45;;;;;;;16.17;11.95;;;;;;;;;;4822288;29;20056;-93
2022/03/04 11:21:30;;;;;;;20.15;12.95;;;;;;;;;;4825075;29;20126;-91
2022/03/04 11:24:14;;;;;;;18.52;12.23;;;;;;;;;;4820549;29;20077;-91
2022/03/04 11:26:43;;;;;;;17.75;12.02;;;;;;;;;;4820626;29;20053;-92
2022/03/04 11:29:28;;;;;;;17.60;12.00;;;;;;;;;;4831323;29;20141;-91
2022/03/04 11:31:55;;;;;;;17.75;12.52;;;;;;;;;;4824648;29;20061;-94
2022/03/04 11:34:47;;;;;;;15.18;11.25;;;;;;;;;;4805257;29;20042;-91
2022/03/04 11:43:58;;;;;;;19.20;11.73;;;;;;;;;;4869102;23;20396;-90
2022/03/04 11:46:29;;;;;;;21.52;12.25;;;;;;;;;;4832590;29;20054;-90
2022/03/04 11:49:14;;;;;;;19.02;12.07;;;;;;;;;;4840745;29;20095;-90
2022/03/04 11:51:58;;;;;;;17.90;13.00;;;;;;;;;;4842813;29;20041;-91
2022/03/04 11:54:44;;;;;;;17.77;12.20;;;7.50;99.90;;;;;;4843168;29;20042;-92
2022/03/04 12:00:27;;;;;;;24.10;13.73;;;;;;;;;;4857065;29;20061;-90
2022/03/04 12:06:34;;;;;;;21.35;13.20;;;;;;;;;;4837268;29;20049;-89
2022/03/04 12:09:33;;;;;;;20.17;13.30;;;;;;;;;;4822238;29;20555;-89
2022/03/04 12:12:27;;;;;;;20.85;12.10;;;;;;;;;;4837723;29;20034;-91
2022/03/04 12:18:50;;;;;;;18.17;12.48;;;;;;;;;;4808450;29;20050;-89
2022/03/04 12:21:28;;;;;;;16.60;11.73;;;;;;;;;;4802419;29;20057;-89
2022/03/04 12:24:01;;;;;;;17.50;11.68;;;;;;;;;;4793228;29;20051;-90
2022/03/04 12:26:37;;;;;;;18.02;11.40;;;;;;;;;;4791182;29;20066;-89
2022/03/04 12:29:18;;;;;;;20.90;11.07;;;;;;;;;;4791130;29;20562;-89
2022/03/04 12:34:59;;;;;;;12.05;9.45;;;;;;;;;;4789283;29;20062;-89
2022/03/04 12:37:26;;;;;;;15.57;10.38;;;;;;;;;;4842243;29;20464;-88
2022/03/04 12:39:52;;;;;;;16.83;10.25;;;;;;;;;;4859439;29;20046;-89
2022/03/04 12:42:19;;;;;;;15.10;10.00;;;;;;;;;;4807646;29;20059;-88
2022/03/04 12:44:51;;;;;;;15.52;9.73;;;;;;;;;;4840951;29;20119;-90
2022/03/04 12:51:17;;;;;;;14.70;9.32;;;;;;;;;;4840700;29;20052;-89
2022/03/04 12:54:04;;;;;;;16.45;9.80;;;;;;;;;;4821812;29;20056;-89
2022/03/04 12:56:36;;;;;;;14.32;10.35;;;;;;;;;;4840580;29;20133;-89
2022/03/04 12:59:08;;;;;;;14.40;9.30;;;;;;;;;;4837548;29;20636;-89
2022/03/04 13:01:43;;;;;;;15.60;11.25;;;;;;;;;;4840287;29;20889;-89
2022/03/04 13:04:20;;;;;;;14.20;9.63;;;;;;;;;;4838732;29;20050;-89
2022/03/04 13:06:58;;;;;;;14.35;9.90;;;;;;;;;;4823400;29;20061;-90
2022/03/04 13:09:31;;;;;;;12.35;8.75;;;;;;;;;;4838624;29;20403;-90
2022/03/04 13:12:03;;;;;;;11.52;9.13;;;;;;;;;;4823079;29;20425;-89
2022/03/04 13:14:41;;;;;;;14.15;9.90;;;;;;;;;;4840504;29;20046;-90
2022/03/04 13:17:16;;;;;;;12.68;8.63;;;;;;;;;;4838141;29;20662;-91
2022/03/04 13:19:43;;;;;;;14.10;8.50;;;;;;;;;;4839803;29;20038;-88
2022/03/04 13:22:20;;;;;;;12.38;9.10;;;;;;;;;;4837530;29;20469;-90
2022/03/04 13:25:06;;;;;;;12.85;8.55;;;;;;;;;;4836641;29;20042;-89
2022/03/04 13:27:54;;;;;;;15.05;8.88;;;;;;;;;;4822702;29;20453;-92
2022/03/04 13:30:32;;;;;;;13.70;9.43;;;;;;;;;;4838369;29;20110;-89
2022/03/04 13:33:04;;;;;;;15.57;10.13;;;;;;;;;;4842536;29;20045;-89
2022/03/04 13:35:51;;;;;;;16.40;9.70;;;;;;;;;;4838497;29;20030;-88
2022/03/04 13:38:21;;;;;;;18.02;9.15;;;;;;;;;;4847008;29;20042;-89
2022/03/04 13:40:47;;;;;;;14.35;9.07;;;;;;;;;;4827478;29;20057;-87
2022/03/04 13:43:53;;;;;;;13.75;8.52;;;;;;;;;;4861565;29;20053;-88
2022/03/04 13:46:22;;;;;;;17.20;8.88;;;;;;;;;;4842843;29;20068;-88
2022/03/04 13:49:16;;;;;;;10.60;8.30;;;;;;;;;;4842786;29;20489;-87
2022/03/04 13:51:44;;;;;;;13.40;8.73;;;;;;;;;;4857989;29;20064;-88
2022/03/04 13:54:10;;;;;;;9.65;7.00;;;;;;;;;;4823332;29;20085;-89
2022/03/04 13:56:51;;;;;;;12.88;9.00;;;;;;;;;;4809504;29;20072;-87
2022/03/04 13:59:17;;;;;;;12.77;8.70;;;;;;;;;;4825031;29;20037;-89
2022/03/04 14:01:43;;;;;;;13.30;8.45;;;;;;;;;;4824273;29;20474;-88
2022/03/04 14:04:20;;;;;;;10.52;8.07;;;;;;;;;;4856345;29;20479;-88
2022/03/04 14:09:22;;;;;;;13.50;8.05;;;;;;;;;;4987965;23;20112;-87
2022/03/04 14:11:50;;;;;;;11.10;8.60;;;;;;;;;;4829219;29;20121;-88
2022/03/04 14:14:38;;;;;;;11.88;7.40;;;;;;;;;;4846918;29;20080;-88
2022/03/04 14:17:05;;;;;;;13.10;9.00;;;;;;;;;;4871456;24;20057;-89
2022/03/04 14:19:40;;;;;;;16.67;8.85;;;;;;;;;;4865888;29;20064;-88
2022/03/04 14:22:33;;;;;;;10.63;8.15;;;;;;;;;;4880225;24;20159;-88
2022/03/04 14:25:00;;;;;;;14.68;7.85;;;;;;;;;;4815178;29;20648;-88
2022/03/04 14:27:26;;;;;;;19.38;11.32;;;;;;;;;;4823149;29;20124;-89
2022/03/04 14:29:52;;;;;;;12.18;8.85;;;;;;;;;;4830254;29;20870;-89
2022/03/04 14:32:26;;;;;;;12.70;9.20;;;;;;;;;;4830379;29;20050;-90
2022/03/04 14:34:52;;;;;;;12.97;9.73;;;;;;;;;;4836136;29;20132;-89
2022/03/04 14:37:18;;;;;;;13.63;8.00;;;;;;;;;;4828488;29;20084;-90
2022/03/04 14:39:44;;;;;;;12.23;8.45;;;;;;;;;;4849214;29;20403;-90
2022/03/04 14:42:29;;;;;;;16.65;8.88;;;;;;;;;;4837855;29;20094;-89
2022/03/04 14:44:55;;;;;;;10.00;7.45;;;;;;;;;;4834295;29;20052;-89
2022/03/04 14:47:21;;;;;;;10.68;8.13;;;;;;;;;;4838263;23;20049;-89
2022/03/04 14:59:55;;;;;;;15.77;7.75;;;;;;;;;;4854599;29;20065;-89
2022/03/04 15:02:21;;;;;;;12.13;7.07;;;;;;;;;;4838198;29;20101;-89
2022/03/04 15:05:04;;;;;;;10.27;7.28;;;;;;;;;;4841425;29;20512;-90
2022/03/04 15:07:31;;;;;;;15.52;7.70;;;;;;;;;;4842715;29;20508;-90
2022/03/04 15:09:57;;;;;;;12.25;7.45;;;;;;;;;;4833942;29;20045;-84
2022/03/04 15:12:39;;;;;;;11.40;7.90;;;;;;;;;;4853669;29;20124;-89
2022/03/04 15:15:09;;;;;;;28.17;13.15;;;;;;;;;;4819105;29;20627;-87